Terminal Aerodrome Forecast
Issued by NWS Springfield, MO

Home | Current Version | Previous Version | Text Only | Print | Product List | Glossary On
Versions: 1 2 3 4 5 6 7 8 9 10 11 12 13 14
830
FTUS43 KSGF 301914 AAA
TAFSGF
TAF AMD
KSGF 301914Z 3019/3118 21013KT P6SM VCTS FEW030CB BKN120
     FM302300 17008KT P6SM BKN200
     FM311200 16006KT P6SM VCTS OVC050CB
     FM311500 16009KT P6SM VCTS OVC025CB=

USA.gov is the U.S. government's official web portal to all federal, state and local government web resources and services.